Nanticoke — VCQL — position and weather

sailwx.info

Track history (hours):
 
Tides and Currents Weather Stations Pressure Air Temp Water Temp Dewpoint Dewpoint Depression Visibility Wind Speed Wind Dir Waves Ship Positions

Nanticoke

Last reported at 2017-Dec-16 08:24 UTC. Time now 2017-Dec-18 18:38 UTC.
Position N 45°11' W 074°19'.

Length 223 m; draft 7.4 m.

Type: Cargo ship. MMSI: 316043000.

Date/timePositionNaut miles runAvg speedWind from/ knotsBaromVisibWave heightAir tempDewpointWater temp
2017-Dec-16 08:24N 45°11' W 074°19'5 8.7
2017-Dec-16 07:48N 45°14' W 074°12'3 9.2
2017-Dec-16 07:30N 45°14' W 074°09'4 8.7
2017-Dec-16 07:00N 45°13' W 074°02'4 8.7
2017-Dec-16 06:30N 45°16' W 073°57'3 5.5
2017-Dec-16 06:00N 45°18' W 073°56'0 0.6
2017-Dec-16 05:30N 45°19' W 073°55'1 1.1
2017-Dec-16 05:00N 45°19' W 073°55'0 0.7
2017-Dec-16 04:30N 45°19' W 073°55'2 3.1
2017-Dec-16 04:00N 45°20' W 073°53'4 8.2
2017-Dec-16 03:30N 45°23' W 073°49'5 8.9
2017-Dec-16 03:00N 45°25' W 073°43'3 5.6
2017-Dec-16 02:30N 45°24' W 073°39'3 5.6
2017-Dec-16 02:00N 45°24' W 073°35'1 1.3
2017-Dec-16 01:30N 45°24' W 073°34'0 0.4
2017-Dec-16 01:00N 45°24' W 073°34'1 2.0
2017-Dec-16 00:30N 45°24' W 073°32'2 4.3
2017-Dec-16 00:00N 45°26' W 073°30'3 6.1
2017-Dec-15 23:29N 45°29' W 073°31'0 0.2
2017-Dec-15 23:00N 45°29' W 073°31'0 0.0
2017-Dec-15 22:30N 45°29' W 073°31'0 0.5
2017-Dec-15 22:00N 45°29' W 073°31'0 0.4
2017-Dec-15 21:30N 45°30' W 073°31'1 1.4
2017-Dec-15 21:00N 45°30' W 073°31'3 0.5
2017-Dec-15 14:44N 45°34' W 073°31'0 0.0
2017-Dec-15 13:44N 45°34' W 073°31'0 0.0
2017-Dec-15 12:32N 45°34' W 073°31'0 0.0
2017-Dec-15 12:26N 45°34' W 073°31'2 0.1
2017-Dec-14 08:48N 45°32' W 073°32'2 6.8
2017-Dec-14 08:30N 45°30' W 073°31'1 1.0
2017-Dec-14 07:54N 45°30' W 073°31'1 2.4
2017-Dec-14 07:30N 45°29' W 073°31'3 6.6
2017-Dec-14 07:00N 45°25' W 073°30'3 4.4
2017-Dec-14 06:23N 45°24' W 073°34'0 1.0
2017-Dec-14 06:00N 45°24' W 073°35'2 3.6
2017-Dec-14 05:29N 45°24' W 073°37'3 5.9
2017-Dec-14 05:00N 45°25' W 073°41'4 7.4
2017-Dec-14 04:30N 45°24' W 073°46'1 1.9
2017-Dec-14 04:00N 45°24' W 073°47'4 8.3
2017-Dec-14 03:30N 45°25' W 073°42'3 6.1
2017-Dec-14 03:00N 45°24' W 073°37'1 3.0
2017-Dec-14 02:30N 45°24' W 073°35'0 0.0
2017-Dec-14 02:00N 45°24' W 073°35'0 0.0
2017-Dec-14 01:30N 45°24' W 073°35'0 0.0
2017-Dec-14 01:00N 45°24' W 073°35'0 0.0
2017-Dec-14 00:30N 45°24' W 073°35'0 0.0
2017-Dec-14 00:00N 45°24' W 073°35'0 0.0
2017-Dec-13 23:30N 45°24' W 073°35'0 0.0
2017-Dec-13 23:00N 45°24' W 073°35'0 0.0
2017-Dec-13 22:30N 45°24' W 073°35'0 0.0
2017-Dec-13 22:00N 45°24' W 073°35'0 0.0
2017-Dec-13 21:30N 45°24' W 073°35'0 0.0
2017-Dec-13 21:00N 45°24' W 073°35'0 0.0
2017-Dec-13 20:30N 45°24' W 073°35'0 0.0
2017-Dec-13 19:58N 45°24' W 073°35'0 0.0
2017-Dec-13 19:30N 45°24' W 073°35'0 0.0
2017-Dec-13 19:00N 45°24' W 073°35'0 0.0
2017-Dec-13 18:30N 45°24' W 073°35'0 0.0
2017-Dec-13 18:00N 45°24' W 073°35'0 0.0
2017-Dec-13 17:30N 45°24' W 073°35'0 0.0
2017-Dec-13 17:00N 45°24' W 073°35'0 0.0
2017-Dec-13 16:30N 45°24' W 073°35'0 0.0
2017-Dec-13 16:00N 45°24' W 073°35'0 0.0
2017-Dec-13 15:30N 45°24' W 073°35'0 0.0
2017-Dec-13 15:00N 45°24' W 073°35'0 0.0
2017-Dec-13 14:30N 45°24' W 073°35'0 0.0
2017-Dec-13 14:00N 45°24' W 073°35'0 0.0
2017-Dec-13 13:30N 45°24' W 073°35'0 0.2
2017-Dec-13 13:01N 45°24' W 073°35'1 2.0
2017-Dec-13 12:30N 45°24' W 073°34'0 0.2
2017-Dec-13 12:00N 45°24' W 073°34'1 3.0
2017-Dec-13 11:31N 45°25' W 073°32'3 5.3
2017-Dec-13 11:01N 45°27' W 073°30'2 5.0
2017-Dec-13 10:31N 45°29' W 073°31'0 0.5
2017-Dec-13 09:52N 45°30' W 073°31'0 0.0
2017-Dec-13 09:30N 45°30' W 073°31'0 0.9
2017-Dec-13 09:00N 45°30' W 073°31'0 0.9
2017-Dec-13 08:30N 45°31' W 073°31'1 2.4
2017-Dec-13 07:57N 45°32' W 073°32'1 3.1
2017-Dec-13 07:28N 45°33' W 073°31'2 4.0
2017-Dec-13 06:56N 45°35' W 073°30'4 7.3
2017-Dec-13 06:21N 45°39' W 073°28'  
Track history (hours):
 
Tides and Currents Weather Stations Pressure Air Temp Water Temp Dewpoint Dewpoint Depression Visibility Wind Speed Wind Dir Waves Ship Positions

Nanticoke

Last reported at 2017-Dec-16 08:24 UTC. Time now 2017-Dec-18 18:38 UTC.
Position N 45°11' W 074°19'.

Length 223 m; draft 7.4 m.

Type: Cargo ship. MMSI: 316043000.

Date/timePositionNaut miles runAvg speedWind from/ knotsBaromVisibWave heightAir tempDewpointWater temp
2017-Dec-16 08:24N 45°11' W 074°19'5 8.7
2017-Dec-16 07:48N 45°14' W 074°12'3 9.2
2017-Dec-16 07:30N 45°14' W 074°09'4 8.7
2017-Dec-16 07:00N 45°13' W 074°02'4 8.7
2017-Dec-16 06:30N 45°16' W 073°57'3 5.5
2017-Dec-16 06:00N 45°18' W 073°56'0 0.6
2017-Dec-16 05:30N 45°19' W 073°55'1 1.1
2017-Dec-16 05:00N 45°19' W 073°55'0 0.7
2017-Dec-16 04:30N 45°19' W 073°55'2 3.1
2017-Dec-16 04:00N 45°20' W 073°53'4 8.2
2017-Dec-16 03:30N 45°23' W 073°49'5 8.9
2017-Dec-16 03:00N 45°25' W 073°43'3 5.6
2017-Dec-16 02:30N 45°24' W 073°39'3 5.6
2017-Dec-16 02:00N 45°24' W 073°35'1 1.3
2017-Dec-16 01:30N 45°24' W 073°34'0 0.4
2017-Dec-16 01:00N 45°24' W 073°34'1 2.0
2017-Dec-16 00:30N 45°24' W 073°32'2 4.3
2017-Dec-16 00:00N 45°26' W 073°30'3 6.1
2017-Dec-15 23:29N 45°29' W 073°31'0 0.2
2017-Dec-15 23:00N 45°29' W 073°31'0 0.0
2017-Dec-15 22:30N 45°29' W 073°31'0 0.5
2017-Dec-15 22:00N 45°29' W 073°31'0 0.4
2017-Dec-15 21:30N 45°30' W 073°31'1 1.4
2017-Dec-15 21:00N 45°30' W 073°31'3 0.5
2017-Dec-15 14:44N 45°34' W 073°31'0 0.0
2017-Dec-15 13:44N 45°34' W 073°31'0 0.0
2017-Dec-15 12:32N 45°34' W 073°31'0 0.0
2017-Dec-15 12:26N 45°34' W 073°31'2 0.1
2017-Dec-14 08:48N 45°32' W 073°32'2 6.8
2017-Dec-14 08:30N 45°30' W 073°31'1 1.0
2017-Dec-14 07:54N 45°30' W 073°31'1 2.4
2017-Dec-14 07:30N 45°29' W 073°31'3 6.6
2017-Dec-14 07:00N 45°25' W 073°30'3 4.4
2017-Dec-14 06:23N 45°24' W 073°34'0 1.0
2017-Dec-14 06:00N 45°24' W 073°35'2 3.6
2017-Dec-14 05:29N 45°24' W 073°37'3 5.9
2017-Dec-14 05:00N 45°25' W 073°41'4 7.4
2017-Dec-14 04:30N 45°24' W 073°46'1 1.9
2017-Dec-14 04:00N 45°24' W 073°47'4 8.3
2017-Dec-14 03:30N 45°25' W 073°42'3 6.1
2017-Dec-14 03:00N 45°24' W 073°37'1 3.0
2017-Dec-14 02:30N 45°24' W 073°35'0 0.0
2017-Dec-14 02:00N 45°24' W 073°35'0 0.0
2017-Dec-14 01:30N 45°24' W 073°35'0 0.0
2017-Dec-14 01:00N 45°24' W 073°35'0 0.0
2017-Dec-14 00:30N 45°24' W 073°35'0 0.0
2017-Dec-14 00:00N 45°24' W 073°35'0 0.0
2017-Dec-13 23:30N 45°24' W 073°35'0 0.0
2017-Dec-13 23:00N 45°24' W 073°35'0 0.0
2017-Dec-13 22:30N 45°24' W 073°35'0 0.0
2017-Dec-13 22:00N 45°24' W 073°35'0 0.0
2017-Dec-13 21:30N 45°24' W 073°35'0 0.0
2017-Dec-13 21:00N 45°24' W 073°35'0 0.0
2017-Dec-13 20:30N 45°24' W 073°35'0 0.0
2017-Dec-13 19:58N 45°24' W 073°35'0 0.0
2017-Dec-13 19:30N 45°24' W 073°35'0 0.0
2017-Dec-13 19:00N 45°24' W 073°35'0 0.0
2017-Dec-13 18:30N 45°24' W 073°35'0 0.0
2017-Dec-13 18:00N 45°24' W 073°35'0 0.0
2017-Dec-13 17:30N 45°24' W 073°35'0 0.0
2017-Dec-13 17:00N 45°24' W 073°35'0 0.0
2017-Dec-13 16:30N 45°24' W 073°35'0 0.0
2017-Dec-13 16:00N 45°24' W 073°35'0 0.0
2017-Dec-13 15:30N 45°24' W 073°35'0 0.0
2017-Dec-13 15:00N 45°24' W 073°35'0 0.0
2017-Dec-13 14:30N 45°24' W 073°35'0 0.0
2017-Dec-13 14:00N 45°24' W 073°35'0 0.0
2017-Dec-13 13:30N 45°24' W 073°35'0 0.2
2017-Dec-13 13:01N 45°24' W 073°35'1 2.0
2017-Dec-13 12:30N 45°24' W 073°34'0 0.2
2017-Dec-13 12:00N 45°24' W 073°34'1 3.0
2017-Dec-13 11:31N 45°25' W 073°32'3 5.3
2017-Dec-13 11:01N 45°27' W 073°30'2 5.0
2017-Dec-13 10:31N 45°29' W 073°31'0 0.5
2017-Dec-13 09:52N 45°30' W 073°31'0 0.0
2017-Dec-13 09:30N 45°30' W 073°31'0 0.9
2017-Dec-13 09:00N 45°30' W 073°31'0 0.9
2017-Dec-13 08:30N 45°31' W 073°31'1 2.4
2017-Dec-13 07:57N 45°32' W 073°32'1 3.1
2017-Dec-13 07:28N 45°33' W 073°31'2 4.0
2017-Dec-13 06:56N 45°35' W 073°30'4 7.3
2017-Dec-13 06:21N 45°39' W 073°28'  

Dump ship's entire track history